Time;durP1;ratioP1;P1;durP2;ratioP2;P2;SDS_P1;SDS_P2;PMS_P1;PMS_P2;Temp;Humidity;BMP_temperature;BMP_pressure;BME280_temperature;BME280_humidity;BME280_pressure;Samples;Min_cycle;Max_cycle;Signal;HPM_P1;HPM_P2
2023/02/14 00:01:22;;;;;;;29.30;16.48;;;2.90;99.90;;;1.83;100.00;102818.53;4167403;28;20026;-82
2023/02/14 00:03:23;;;;;;;24.85;16.83;;;2.90;99.90;;;1.83;100.00;102817.66;4183781;28;20033;-82
2023/02/14 00:05:24;;;;;;;26.23;15.27;;;2.90;99.90;;;1.86;100.00;102821.03;4183677;28;20443;-83
2023/02/14 00:07:25;;;;;;;25.25;15.93;;;2.90;99.90;;;1.84;100.00;102828.03;4173880;28;20025;-82
2023/02/14 00:09:26;;;;;;;26.23;18.00;;;2.90;99.90;;;1.83;100.00;102822.88;4168485;28;20562;-82
2023/02/14 00:11:28;;;;;;;25.80;18.23;;;2.80;99.90;;;1.79;100.00;102821.28;4183659;28;20128;-83
2023/02/14 00:13:29;;;;;;;31.65;18.73;;;2.80;99.90;;;1.83;100.00;102826.34;4167236;28;20017;-83
2023/02/14 00:15:30;;;;;;;25.73;17.95;;;2.80;99.90;;;1.76;100.00;102806.63;4168056;28;20038;-82
2023/02/14 00:17:31;;;;;;;28.73;18.13;;;2.80;99.90;;;1.83;100.00;102821.13;4191292;28;20052;-83
2023/02/14 00:19:34;;;;;;;26.67;17.40;;;2.80;99.90;;;1.76;100.00;102811.84;4168589;28;20037;-82
2023/02/14 00:21:37;;;;;;;27.52;17.33;;;2.80;99.90;;;1.72;100.00;102805.03;4150882;28;20053;-82
2023/02/14 00:23:38;;;;;;;26.75;17.90;;;2.80;99.90;;;1.74;100.00;102813.63;4167183;28;20029;-82
2023/02/14 00:25:39;;;;;;;26.98;18.60;;;2.80;99.90;;;1.68;100.00;102808.59;4172622;28;20112;-82
2023/02/14 00:27:40;;;;;;;26.42;17.13;;;2.70;99.90;;;1.66;100.00;102806.06;4175506;28;20057;-82
2023/02/14 00:29:41;;;;;;;27.20;16.77;;;2.70;99.90;;;1.62;100.00;102801.00;4166955;28;20053;-83
2023/02/14 00:31:43;;;;;;;27.48;17.30;;;2.70;99.90;;;1.64;100.00;102818.25;4167234;28;20034;-82
2023/02/14 00:33:44;;;;;;;28.35;17.25;;;2.70;99.90;;;1.57;100.00;102802.91;4150954;28;20025;-82
2023/02/14 00:35:45;;;;;;;26.55;17.50;;;2.60;99.90;;;1.57;100.00;102798.56;4168225;28;20040;-82
2023/02/14 00:37:46;;;;;;;26.77;16.73;;;2.60;99.90;;;1.45;100.00;102787.69;4169554;28;20479;-82
2023/02/14 00:39:47;;;;;;;29.80;17.77;;;2.60;99.90;;;1.48;100.00;102798.84;4164215;28;20576;-81
2023/02/14 00:41:48;;;;;;;28.85;16.77;;;2.60;99.90;;;1.49;100.00;102797.09;4185273;28;20105;-81
2023/02/14 00:43:52;;;;;;;23.10;15.63;;;2.50;99.90;;;1.47;100.00;102793.69;4186773;28;20033;-81
2023/02/14 00:45:53;;;;;;;28.10;17.85;;;2.50;99.90;;;1.48;100.00;102795.38;4186466;28;20025;-82
2023/02/14 00:47:53;;;;;;;21.92;14.90;;;2.50;99.90;;;1.43;100.00;102792.09;4171959;28;20088;-81
2023/02/14 00:49:54;;;;;;;21.52;15.30;;;2.50;99.90;;;1.38;100.00;102789.63;4173363;28;20021;-82
2023/02/14 00:51:55;;;;;;;22.80;15.07;;;2.50;99.90;;;1.36;100.00;102790.56;4179608;28;20075;-82
2023/02/14 00:53:56;;;;;;;23.27;15.10;;;2.40;99.90;;;1.31;100.00;102795.06;4170074;28;20061;-82
2023/02/14 00:55:57;;;;;;;25.83;15.43;;;2.40;99.90;;;1.26;100.00;102787.38;4172907;28;20112;-82
2023/02/14 00:57:58;;;;;;;29.33;17.88;;;2.30;99.90;;;1.26;100.00;102789.13;4173282;28;20120;-82
2023/02/14 00:59:59;;;;;;;30.23;18.10;;;2.30;99.90;;;1.22;100.00;102793.59;4169237;28;20025;-81
2023/02/14 01:02:00;;;;;;;32.72;18.60;;;2.30;99.90;;;1.21;100.00;102788.44;4179351;28;20520;-82
2023/02/14 01:04:01;;;;;;;34.10;17.98;;;2.20;99.90;;;1.18;100.00;102786.78;4174540;28;20036;-82
2023/02/14 01:06:03;;;;;;;28.90;19.02;;;2.20;99.90;;;1.16;100.00;102780.78;4172110;28;20056;-82
2023/02/14 01:08:04;;;;;;;31.10;18.40;;;2.20;99.90;;;1.17;100.00;102781.63;4186196;28;20028;-82
2023/02/14 01:10:06;;;;;;;27.08;16.83;;;2.20;99.90;;;1.18;100.00;102772.94;4169855;28;20025;-82
2023/02/14 01:12:07;;;;;;;34.40;18.75;;;2.20;99.90;;;1.11;100.00;102775.72;4169650;28;20026;-82
2023/02/14 01:14:08;;;;;;;27.30;17.63;;;2.20;99.90;;;1.09;100.00;102771.47;4169481;28;20025;-82
2023/02/14 01:16:14;;;;;;;28.33;18.27;;;2.20;99.90;;;1.02;100.00;102763.00;4174307;28;20117;-82
2023/02/14 01:18:17;;;;;;;31.73;18.80;;;2.20;99.90;;;1.13;100.00;102783.47;4160452;28;20398;-81
2023/02/14 01:20:18;;;;;;;24.85;16.77;;;2.20;99.90;;;1.11;100.00;102774.84;4170710;28;20388;-81
2023/02/14 01:22:19;;;;;;;23.90;16.30;;;2.10;99.90;;;1.01;100.00;102763.91;4185903;28;20089;-81
2023/02/14 01:24:20;;;;;;;23.73;16.52;;;2.10;99.90;;;1.01;100.00;102769.09;4152978;28;20119;-81
2023/02/14 01:26:22;;;;;;;27.83;17.60;;;2.10;99.90;;;0.90;100.00;102760.75;4175633;28;20025;-81
2023/02/14 01:28:23;;;;;;;26.08;18.02;;;2.00;99.90;;;0.93;100.00;102770.19;4156858;28;20056;-82
2023/02/14 01:30:24;;;;;;;25.70;17.25;;;2.00;99.90;;;0.79;100.00;102754.16;4170315;28;20570;-81
2023/02/14 01:32:25;;;;;;;26.90;18.45;;;2.00;99.90;;;0.87;100.00;102770.38;4169519;28;20097;-82
2023/02/14 01:34:26;;;;;;;31.08;19.50;;;2.00;99.90;;;0.82;100.00;102760.13;4169403;28;20045;-81
2023/02/14 01:36:35;;;;;;;29.33;19.15;;;1.90;99.90;;;0.81;100.00;102760.16;4176033;28;20037;-82
2023/02/14 01:38:35;;;;;;;24.48;16.55;;;1.90;99.90;;;0.72;100.00;102753.50;4140134;28;20035;-81
2023/02/14 01:40:44;;;;;;;34.05;19.25;;;1.90;99.90;;;0.75;100.00;102766.38;4170329;28;20524;-81
2023/02/14 01:42:45;;;;;;;37.10;23.00;;;1.90;99.90;;;0.70;100.00;102757.88;4169504;28;20143;-82
2023/02/14 01:44:53;;;;;;;32.80;20.00;;;1.80;99.90;;;0.72;100.00;102766.47;4170175;28;20029;-81
2023/02/14 01:46:56;;;;;;;32.22;19.67;;;1.80;99.90;;;0.72;100.00;102778.63;4175868;28;20025;-82
2023/02/14 01:49:07;;;;;;;32.75;21.10;;;1.80;99.90;;;0.63;100.00;102760.72;4169163;28;20053;-82
2023/02/14 01:51:08;;;;;;;31.40;22.15;;;1.70;99.90;;;0.63;100.00;102766.72;4169125;28;20029;-82
2023/02/14 01:53:20;;;;;;;33.78;21.85;;;1.70;99.90;;;0.61;100.00;102765.94;4168542;28;20055;-82
2023/02/14 01:55:27;;;;;;;32.45;20.85;;;1.70;99.90;;;0.56;100.00;102762.63;4185117;28;20033;-82
2023/02/14 01:57:38;;;;;;;28.23;18.00;;;1.70;99.90;;;0.57;100.00;102765.16;4172152;28;20033;-82
2023/02/14 01:59:54;;;;;;;35.80;22.50;;;1.70;99.90;;;0.58;100.00;102760.84;4152599;28;20152;-82
2023/02/14 02:01:55;;;;;;;33.83;21.90;;;1.70;99.90;;;0.49;100.00;102753.28;4169851;28;20017;-82
2023/02/14 02:04:04;;;;;;;32.72;21.52;;;1.60;99.90;;;0.53;100.00;102755.78;4168786;28;20076;-82
2023/02/14 02:06:21;;;;;;;35.03;21.77;;;1.60;99.90;;;0.55;100.00;102759.19;4169753;28;20489;-82
2023/02/14 02:08:22;;;;;;;33.28;21.00;;;1.60;99.90;;;0.52;100.00;102761.84;4168932;28;20022;-82
2023/02/14 02:10:23;;;;;;;36.90;22.95;;;1.60;99.90;;;0.49;100.00;102764.53;4168628;28;20397;-82
2023/02/14 02:12:25;;;;;;;36.75;20.17;;;1.60;99.90;;;0.47;100.00;102768.94;4168494;28;20041;-82
2023/02/14 02:14:26;;;;;;;36.17;22.80;;;1.60;99.90;;;0.43;100.00;102764.72;4168453;28;20033;-83
2023/02/14 02:17:02;;;;;;;31.65;20.92;;;1.50;99.90;;;0.48;100.00;102767.16;4174716;28;20037;-82
2023/02/14 02:19:21;;;;;;;31.33;20.50;;;1.50;99.90;;;0.43;100.00;102762.09;4170173;28;20045;-82
2023/02/14 02:21:51;;;;;;;27.30;19.38;;;1.50;99.90;;;0.38;100.00;102755.34;4169986;28;20048;-82
2023/02/14 02:24:08;;;;;;;32.50;20.42;;;1.50;99.90;;;0.36;100.00;102759.75;4187343;28;20025;-82
2023/02/14 02:26:57;;;;;;;34.72;21.50;;;1.50;99.90;;;0.33;100.00;102759.81;4173296;28;20530;-82
2023/02/14 02:29:43;;;;;;;34.53;23.25;;;1.40;99.90;;;0.29;100.00;102753.00;4169805;28;20129;-82
2023/02/14 02:32:41;;;;;;;35.05;22.50;;;1.40;99.90;;;0.28;100.00;102764.25;4171062;28;20033;-82
2023/02/14 02:35:09;;;;;;;30.70;20.42;;;1.40;99.90;;;0.25;100.00;102765.19;4169590;28;20068;-82
2023/02/14 02:37:43;;;;;;;31.20;20.95;;;1.30;99.90;;;0.24;100.00;102755.69;4182859;28;20045;-82
2023/02/14 02:40:18;;;;;;;36.08;21.85;;;1.30;99.90;;;0.27;100.00;102757.38;4169601;28;20094;-82
2023/02/14 02:42:30;;;;;;;32.88;21.25;;;1.40;99.90;;;0.27;100.00;102760.00;4176654;28;20107;-81
2023/02/14 02:44:58;;;;;;;30.20;20.40;;;1.30;99.90;;;0.24;100.00;102758.28;4184498;28;20116;-82
2023/02/14 02:47:34;;;;;;;35.85;22.15;;;1.30;99.90;;;0.19;100.00;102760.16;4175483;28;20025;-82
2023/02/14 02:55:05;;;;;;;32.13;20.33;;;1.20;99.90;;;0.17;100.00;102743.81;4173508;28;20047;-82
2023/02/14 02:57:17;;;;;;;29.25;19.90;;;1.30;99.90;;;0.07;100.00;102734.53;4173320;28;20053;-82
2023/02/14 02:59:36;;;;;;;27.92;19.30;;;1.20;99.90;;;0.12;100.00;102747.41;4167498;28;20056;-82
2023/02/14 03:01:41;;;;;;;32.22;21.05;;;1.20;99.90;;;-0.01;100.00;102732.16;4158726;28;20104;-82
2023/02/14 03:06:07;;;;;;;30.17;20.65;;;1.20;99.90;;;-0.08;100.00;102709.00;4181586;28;20100;-81
2023/02/14 03:08:08;;;;;;;30.67;20.30;;;1.10;99.90;;;-0.04;100.00;102724.47;4151546;28;20057;-82
2023/02/14 03:10:17;;;;;;;29.77;20.42;;;1.10;99.90;;;-0.01;100.00;102733.91;4151377;28;20021;-82
2023/02/14 03:12:32;;;;;;;31.00;20.75;;;1.10;99.90;;;-0.05;100.00;102730.53;4169068;28;20033;-82
2023/02/14 03:14:44;;;;;;;29.65;19.27;;;1.10;99.90;;;-0.09;100.00;102731.50;4184099;28;20025;-81
2023/02/14 03:17:21;;;;;;;31.13;20.17;;;1.00;99.90;;;-0.18;100.00;102717.94;4175696;28;20021;-82
2023/02/14 03:20:22;;;;;;;32.78;21.13;;;1.00;99.90;;;-0.17;100.00;102725.66;4152700;28;20054;-82
2023/02/14 03:22:44;;;;;;;36.13;21.98;;;0.90;99.90;;;-0.20;100.00;102715.38;4115734;28;20623;-82
2023/02/14 03:25:35;;;;;;;31.33;21.23;;;0.90;99.90;;;-0.15;100.00;102723.88;4168879;28;20049;-81
2023/02/14 03:28:09;;;;;;;37.47;23.05;;;0.90;99.90;;;-0.16;100.00;102723.94;4166097;28;20053;-81
2023/02/14 03:30:35;;;;;;;32.85;20.98;;;0.90;99.90;;;-0.16;100.00;102721.31;4168455;28;20093;-82
2023/02/14 03:32:58;;;;;;;36.92;22.90;;;0.90;99.90;;;-0.19;100.00;102722.25;4167988;28;20059;-81
2023/02/14 03:35:31;;;;;;;32.53;21.70;;;0.90;99.90;;;-0.22;100.00;102714.56;4168569;28;20103;-81
2023/02/14 03:38:01;;;;;;;36.03;22.42;;;0.90;99.90;;;-0.22;100.00;102719.75;4174753;28;20032;-82
2023/02/14 03:40:31;;;;;;;37.75;22.88;;;0.90;99.90;;;-0.34;100.00;102706.22;4176515;28;20045;-82
2023/02/14 03:42:40;;;;;;;36.88;22.70;;;0.80;99.90;;;-0.32;100.00;102705.31;4184464;28;20033;-81
2023/02/14 03:44:43;;;;;;;38.38;23.08;;;0.80;99.90;;;-0.45;100.00;102692.69;4184193;28;20021;-82
2023/02/14 03:46:55;;;;;;;36.53;23.38;;;0.80;99.90;;;-0.36;100.00;102711.44;4176657;28;20025;-82
2023/02/14 03:49:02;;;;;;;36.90;22.40;;;0.80;99.90;;;-0.40;100.00;102704.66;4167461;28;20052;-82
2023/02/14 03:51:05;;;;;;;34.15;22.05;;;0.70;99.90;;;-0.43;100.00;102702.13;4167869;28;20033;-81
2023/02/14 03:53:10;;;;;;;36.55;23.42;;;0.70;99.90;;;-0.44;100.00;102710.78;4184455;28;20426;-81
2023/02/14 03:55:18;;;;;;;36.70;23.83;;;0.70;99.90;;;-0.54;100.00;102698.09;4167215;28;20064;-82
2023/02/14 03:57:37;;;;;;;36.00;22.98;;;0.60;99.90;;;-0.56;100.00;102696.41;4175356;28;20025;-82
2023/02/14 03:59:38;;;;;;;31.83;22.05;;;0.60;99.90;;;-0.65;100.00;102681.06;4155117;28;20079;-82
2023/02/14 04:01:55;;;;;;;39.35;24.13;;;0.60;99.90;;;-0.58;100.00;102697.31;4167359;28;20489;-82
2023/02/14 04:03:58;;;;;;;33.20;22.65;;;0.50;99.90;;;-0.62;100.00;102690.50;4183783;28;20033;-82
2023/02/14 04:05:59;;;;;;;37.42;23.83;;;0.50;99.90;;;-0.68;100.00;102701.88;4182701;28;20025;-81
2023/02/14 04:08:00;;;;;;;32.65;21.38;;;0.50;99.90;;;-0.68;100.00;102703.59;4167277;28;20026;-81
2023/02/14 04:10:01;;;;;;;35.30;23.00;;;0.40;99.90;;;-0.70;100.00;102702.81;4167396;28;20054;-82
2023/02/14 04:12:02;;;;;;;39.38;22.70;;;0.40;99.90;;;-0.71;100.00;102694.16;4151075;28;20536;-82
2023/02/14 04:14:04;;;;;;;39.35;23.77;;;0.40;99.90;;;-0.66;100.00;102694.06;4166974;28;20029;-82
2023/02/14 04:16:06;;;;;;;36.42;23.52;;;0.40;99.90;;;-0.74;100.00;102685.63;4169037;28;20124;-81
2023/02/14 04:20:28;;;;;;;35.30;22.67;;;0.40;99.90;;;-0.72;100.00;102695.03;4172180;28;20520;-81
2023/02/14 04:22:29;;;;;;;35.65;23.00;;;0.40;99.90;;;-0.76;100.00;102701.22;4171616;28;20030;-82
2023/02/14 04:24:30;;;;;;;38.63;25.00;;;0.40;99.90;;;-0.75;100.00;102700.34;4170247;28;20048;-82
2023/02/14 04:26:31;;;;;;;42.45;26.75;;;0.40;99.90;;;-0.72;100.00;102696.81;4175416;28;20035;-81
2023/02/14 04:28:32;;;;;;;43.63;26.80;;;0.40;99.90;;;-0.72;100.00;102689.03;4172137;28;20057;-82
2023/02/14 04:30:33;;;;;;;44.88;27.73;;;0.40;99.90;;;-0.65;100.00;102695.75;4170200;28;20084;-82
2023/02/14 04:32:34;;;;;;;37.28;25.40;;;0.40;99.90;;;-0.76;100.00;102677.03;4170557;28;20038;-82
2023/02/14 04:34:35;;;;;;;38.67;23.20;;;0.40;99.90;;;-0.82;100.00;102688.41;4170329;28;20037;-82
2023/02/14 04:36:36;;;;;;;38.33;23.30;;;0.40;99.90;;;-0.87;100.00;102681.63;4157990;28;20482;-81
2023/02/14 04:38:37;;;;;;;35.85;23.13;;;0.30;99.90;;;-0.85;100.00;102688.47;4170414;28;20036;-81
2023/02/14 04:40:38;;;;;;;38.28;25.83;;;0.30;99.90;;;-0.94;100.00;102680.91;4170331;28;20076;-82
2023/02/14 04:42:39;;;;;;;35.97;24.30;;;0.30;99.90;;;-0.86;100.00;102694.53;4153568;28;20022;-82
2023/02/14 04:44:40;;;;;;;34.50;22.40;;;0.20;99.90;;;-0.87;100.00;102692.84;4170881;28;20083;-82
2023/02/14 04:46:41;;;;;;;39.95;26.63;;;0.30;99.90;;;-0.86;100.00;102686.75;4172895;28;20044;-82
2023/02/14 04:48:41;;;;;;;39.65;24.48;;;0.20;99.90;;;-0.83;100.00;102684.09;4171159;28;20035;-82
2023/02/14 04:50:42;;;;;;;38.88;24.45;;;0.20;99.90;;;-0.89;100.00;102689.41;4169924;28;20076;-82
2023/02/14 04:52:43;;;;;;;37.17;23.88;;;0.30;99.90;;;-0.86;100.00;102697.13;4170992;28;20065;-81
2023/02/14 04:54:44;;;;;;;40.15;24.15;;;0.30;99.90;;;-0.97;100.00;102680.13;4169939;28;20026;-82
2023/02/14 04:56:45;;;;;;;43.10;25.50;;;0.20;99.90;;;-0.97;100.00;102677.53;4192869;28;20067;-82
2023/02/14 04:58:46;;;;;;;42.53;25.55;;;0.20;99.90;;;-0.88;100.00;102698.03;4176243;28;20053;-81
2023/02/14 05:00:47;;;;;;;34.47;23.70;;;0.20;99.90;;;-0.89;100.00;102691.16;4170576;28;20405;-82
2023/02/14 05:02:48;;;;;;;37.70;23.33;;;0.20;99.90;;;-1.01;100.00;102674.16;4169283;28;20037;-82
2023/02/14 05:04:48;;;;;;;42.70;25.20;;;0.20;99.90;;;-0.95;100.00;102686.13;4169654;28;20033;-82
2023/02/14 05:06:50;;;;;;;38.05;22.58;;;0.20;99.90;;;-0.96;100.00;102689.59;4186016;28;20013;-81
2023/02/14 05:08:50;;;;;;;37.63;23.48;;;0.10;99.90;;;-0.96;100.00;102687.03;4173904;28;20033;-81
2023/02/14 05:10:53;;;;;;;39.30;23.00;;;0.10;99.90;;;-0.96;100.00;102690.47;4153164;28;20029;-81
2023/02/14 05:12:54;;;;;;;36.20;23.73;;;0.10;99.90;;;-1.04;100.00;102684.59;4170820;28;20033;-82
2023/02/14 05:14:56;;;;;;;43.58;25.67;;;0.10;99.90;;;-1.02;100.00;102689.75;4169380;28;20033;-82
2023/02/14 05:16:57;;;;;;;42.75;25.65;;;0.10;99.90;;;-1.05;100.00;102669.09;4177222;28;20037;-81
2023/02/14 05:18:58;;;;;;;40.85;25.55;;;0.10;99.90;;;-0.93;100.00;102684.34;4170796;28;20032;-81
2023/02/14 05:20:59;;;;;;;41.10;25.02;;;0.10;99.90;;;-0.98;100.00;102675.81;4152992;28;20052;-81
2023/02/14 05:23:02;;;;;;;42.25;25.15;;;0.10;99.90;;;-0.94;100.00;102680.06;4169307;28;20029;-81
2023/02/14 05:25:03;;;;;;;39.38;26.05;;;0.10;99.90;;;-1.02;100.00;102681.97;4153008;28;20042;-81
2023/02/14 05:27:04;;;;;;;43.67;24.85;;;0.10;99.90;;;-1.10;100.00;102676.97;4176747;28;20021;-82
2023/02/14 05:29:05;;;;;;;42.88;25.88;;;0.10;99.90;;;-1.08;100.00;102679.53;4169524;28;20612;-82
2023/02/14 05:31:06;;;;;;;41.17;24.60;;;0.00;99.90;;;-1.14;100.00;102673.63;4169793;28;20037;-82
2023/02/14 05:33:08;;;;;;;44.05;25.42;;;0.00;99.90;;;-1.14;100.00;102671.03;4197626;28;20034;-82
2023/02/14 05:35:09;;;;;;;44.88;26.17;;;0.00;99.90;;;-1.19;100.00;102662.47;4185677;28;20466;-82
2023/02/14 05:37:09;;;;;;;47.85;27.33;;;0.00;99.90;;;-1.09;100.00;102676.09;4177725;28;20025;-82
2023/02/14 05:39:13;;;;;;;38.95;24.35;;;0.00;99.90;;;-1.20;100.00;102657.34;4169319;28;20032;-82
2023/02/14 05:41:14;;;;;;;43.28;26.50;;;0.00;99.90;;;-1.19;100.00;102662.47;4169037;28;20029;-81
2023/02/14 05:43:15;;;;;;;42.72;26.80;;;0.00;99.90;;;-1.21;100.00;102664.25;4152540;28;20530;-82
2023/02/14 05:45:16;;;;;;;50.88;28.50;;;0.00;99.90;;;-1.15;100.00;102660.69;4185560;28;20104;-82
2023/02/14 05:47:17;;;;;;;44.67;27.13;;;0.00;99.90;;;-1.11;100.00;102655.38;4170619;28;20401;-81
2023/02/14 05:49:17;;;;;;;40.58;25.55;;;0.00;99.90;;;-1.08;100.00;102659.66;4169161;28;20089;-82
2023/02/14 05:51:18;;;;;;;41.70;27.23;;;0.00;99.90;;;-1.18;100.00;102656.44;4169114;28;20111;-82
2023/02/14 05:53:19;;;;;;;41.55;24.85;;;0.00;99.90;;;-1.16;100.00;102664.16;4169184;28;20029;-82
2023/02/14 05:55:21;;;;;;;44.42;24.98;;;0.00;99.90;;;-1.34;100.00;102642.09;4169082;28;20036;-82
2023/02/14 05:57:21;;;;;;;44.83;26.92;;;-0.10;99.90;;;-1.34;100.00;102642.09;4177407;28;20057;-81
2023/02/14 05:59:22;;;;;;;46.85;27.63;;;-0.10;99.90;;;-1.23;100.00;102655.69;4170252;28;20087;-82
2023/02/14 06:01:23;;;;;;;45.75;26.17;;;-0.10;99.90;;;-1.23;100.00;102660.88;4174694;28;20032;-82
2023/02/14 06:03:25;;;;;;;43.42;24.90;;;-0.10;99.90;;;-1.28;100.00;102660.09;4186672;28;20468;-82
2023/02/14 06:05:26;;;;;;;44.72;24.90;;;-0.10;99.90;;;-1.43;100.00;102642.31;4185336;28;20025;-82
2023/02/14 06:07:27;;;;;;;43.35;24.00;;;-0.20;99.90;;;-1.37;100.00;102664.63;4175209;28;20417;-82
2023/02/14 06:09:28;;;;;;;43.88;27.20;;;-0.20;99.90;;;-1.46;100.00;102644.09;4168928;28;20052;-82
2023/02/14 06:11:28;;;;;;;43.35;26.45;;;-0.30;99.90;;;-1.45;100.00;102657.03;4168734;28;20033;-82
2023/02/14 06:13:29;;;;;;;41.15;25.20;;;-0.30;99.90;;;-1.54;100.00;102649.47;4169750;28;20033;-82
2023/02/14 06:15:30;;;;;;;39.83;25.08;;;-0.30;99.90;;;-1.53;100.00;102656.34;4165481;28;20108;-82
2023/02/14 06:17:31;;;;;;;47.20;28.05;;;-0.40;99.90;;;-1.54;100.00;102659.81;4169706;28;20037;-81
2023/02/14 06:19:32;;;;;;;46.05;26.70;;;-0.40;99.90;;;-1.54;100.00;102669.31;4169786;28;20021;-82
2023/02/14 06:21:34;;;;;;;49.88;29.75;;;-0.40;99.90;;;-1.51;100.00;102666.66;4184874;28;20033;-82
2023/02/14 06:23:35;;;;;;;45.08;27.75;;;-0.40;99.90;;;-1.54;100.00;102648.59;4168382;28;20436;-81
2023/02/14 06:25:36;;;;;;;47.70;28.42;;;-0.40;99.90;;;-1.50;100.00;102656.28;4184952;28;20045;-81
2023/02/14 06:27:37;;;;;;;46.05;28.20;;;-0.40;99.90;;;-1.54;100.00;102648.59;4174936;28;20033;-82
2023/02/14 06:29:38;;;;;;;44.13;26.38;;;-0.40;99.90;;;-1.56;100.00;102651.25;4169378;28;20393;-82
2023/02/14 06:31:38;;;;;;;44.83;28.08;;;-0.40;99.90;;;-1.55;100.00;102659.84;4168345;28;20059;-82
2023/02/14 06:33:39;;;;;;;49.03;28.80;;;-0.40;99.90;;;-1.60;100.00;102652.19;4169589;28;20049;-81
2023/02/14 06:35:40;;;;;;;49.08;27.80;;;-0.40;99.90;;;-1.54;100.00;102669.31;4168212;28;20025;-81
2023/02/14 06:37:43;;;;;;;47.42;26.05;;;-0.40;99.90;;;-1.67;100.00;102642.81;4170628;28;20527;-82
2023/02/14 06:39:44;;;;;;;41.17;25.20;;;-0.40;99.90;;;-1.65;100.00;102643.66;4184344;28;20029;-83
2023/02/14 06:41:45;;;;;;;42.70;25.45;;;-0.40;99.90;;;-1.57;100.00;102657.28;4155835;28;20459;-82
2023/02/14 06:43:49;;;;;;;45.03;26.23;;;-0.40;99.90;;;-1.60;100.00;102652.19;4177943;28;20105;-82
2023/02/14 06:45:50;;;;;;;43.78;25.75;;;-0.50;99.90;;;-1.62;100.00;102656.53;4169011;28;20035;-82
2023/02/14 06:47:51;;;;;;;47.60;27.83;;;-0.40;99.90;;;-1.71;100.00;102656.72;4181184;28;20032;-82
2023/02/14 06:49:52;;;;;;;42.25;25.88;;;-0.50;99.90;;;-1.67;100.00;102663.53;4168225;28;20036;-84
2023/02/14 06:51:53;;;;;;;45.90;26.88;;;-0.50;99.90;;;-1.69;100.00;102654.94;4169238;28;20109;-84
2023/02/14 06:53:54;;;;;;;45.42;26.85;;;-0.50;99.90;;;-1.64;100.00;102665.22;4168037;28;20029;-84
2023/02/14 06:55:54;;;;;;;41.10;25.13;;;-0.60;99.90;;;-1.67;100.00;102668.69;4170922;28;20040;-84
2023/02/14 06:57:55;;;;;;;44.20;25.73;;;-0.50;99.90;;;-1.67;100.00;102666.13;4169265;28;20033;-83
2023/02/14 06:59:56;;;;;;;43.05;25.27;;;-0.60;99.90;;;-1.67;100.00;102660.13;4151332;28;20057;-81
2023/02/14 07:01:57;;;;;;;38.53;23.50;;;-0.60;99.90;;;-1.63;100.00;102664.31;4177337;28;20029;-82
2023/02/14 07:03:58;;;;;;;42.58;25.33;;;-0.60;99.90;;;-1.63;100.00;102662.59;4184402;28;20033;-82
2023/02/14 07:05:59;;;;;;;38.60;25.02;;;-0.50;99.90;;;-1.64;100.00;102671.22;4181854;28;20022;-82
2023/02/14 07:08:00;;;;;;;43.03;25.08;;;-0.50;99.90;;;-1.78;100.00;102649.97;4167871;28;20022;-82
2023/02/14 07:10:01;;;;;;;42.75;25.27;;;-0.50;99.90;;;-1.78;100.00;102652.56;4167920;28;20029;-82
2023/02/14 07:12:02;;;;;;;40.95;24.65;;;-0.60;99.90;;;-1.71;100.00;102665.34;4167905;28;20469;-83
2023/02/14 07:14:03;;;;;;;42.88;24.80;;;-0.60;99.90;;;-1.80;100.00;102652.59;4151016;28;20461;-83
2023/02/14 07:16:04;;;;;;;40.50;24.80;;;-0.60;99.90;;;-1.75;100.00;102666.28;4167699;28;20022;-83
2023/02/14 07:18:07;;;;;;;42.15;26.88;;;-0.60;99.90;;;-1.73;100.00;102674.00;4175498;28;20144;-83
2023/02/14 07:20:09;;;;;;;38.10;23.63;;;-0.60;99.90;;;-1.82;100.00;102663.84;4167924;28;20120;-83
2023/02/14 07:22:10;;;;;;;41.88;25.60;;;-0.60;99.90;;;-1.80;100.00;102672.44;4183991;28;20057;-83
2023/02/14 07:24:11;;;;;;;43.47;25.40;;;-0.60;99.90;;;-1.83;100.00;102662.16;4184013;28;20032;-83
2023/02/14 07:26:16;;;;;;;41.22;24.15;;;-0.60;99.90;;;-1.86;100.00;102650.13;4172704;28;20468;-83
2023/02/14 07:28:17;;;;;;;37.00;24.38;;;-0.60;99.90;;;-1.81;100.00;102662.97;4171469;28;20018;-82
2023/02/14 07:30:19;;;;;;;41.80;25.70;;;-0.60;99.90;;;-1.75;100.00;102665.44;4168478;28;20148;-83
2023/02/14 07:32:20;;;;;;;41.53;27.45;;;-0.60;99.90;;;-1.66;100.00;102680.75;4167934;28;20029;-82
2023/02/14 07:34:23;;;;;;;43.80;26.17;;;-0.50;99.90;;;-1.62;100.00;102677.25;4168495;28;20025;-80
2023/02/14 07:36:24;;;;;;;44.13;25.30;;;-0.50;99.90;;;-1.58;100.00;102675.44;4174138;28;20024;-81
2023/02/14 07:38:29;;;;;;;36.85;22.35;;;-0.50;99.90;;;-1.54;100.00;102680.50;4167373;28;20057;-81
2023/02/14 07:40:30;;;;;;;38.10;22.80;;;-0.40;99.90;;;-1.57;100.00;102677.13;4167542;28;20025;-81
2023/02/14 07:42:31;;;;;;;43.08;25.88;;;-0.40;99.90;;;-1.55;100.00;102678.81;4167900;28;20033;-81
2023/02/14 07:44:32;;;;;;;43.53;25.10;;;-0.40;99.90;;;-1.60;100.00;102667.69;4167105;28;20101;-81
2023/02/14 07:46:33;;;;;;;44.13;25.85;;;-0.40;99.90;;;-1.49;100.00;102670.09;4171540;28;20025;-81
2023/02/14 07:48:34;;;;;;;42.92;26.42;;;-0.40;99.90;;;-1.48;100.00;102664.84;4168845;28;20480;-81
2023/02/14 07:50:34;;;;;;;39.20;24.20;;;-0.40;99.90;;;-1.51;100.00;102664.94;4167370;28;20428;-81
2023/02/14 07:52:35;;;;;;;37.70;24.13;;;-0.30;99.90;;;-1.48;100.00;102664.00;4154201;28;20041;-81
2023/02/14 07:54:37;;;;;;;37.40;22.65;;;-0.30;99.90;;;-1.45;100.00;102672.56;4171017;28;20033;-81
2023/02/14 07:56:38;;;;;;;44.30;26.02;;;-0.30;99.90;;;-1.47;100.00;102661.41;4173757;28;20029;-81
2023/02/14 07:58:39;;;;;;;45.25;25.95;;;-0.30;99.90;;;-1.39;100.00;102669.84;4178363;28;20092;-81
2023/02/14 08:00:40;;;;;;;42.00;25.55;;;-0.30;99.90;;;-1.35;100.00;102655.09;4175010;28;20053;-81
2023/02/14 08:02:41;;;;;;;39.33;24.25;;;-0.20;99.90;;;-1.35;100.00;102655.09;4187250;28;20029;-81
2023/02/14 08:04:42;;;;;;;45.35;25.60;;;-0.20;99.90;;;-1.30;100.00;102661.03;4187458;28;20104;-81
2023/02/14 08:06:43;;;;;;;41.75;25.40;;;-0.10;99.90;;;-1.35;100.00;102650.78;4161987;28;20053;-81
2023/02/14 08:08:44;;;;;;;44.47;26.58;;;-0.10;99.90;;;-1.30;100.00;102641.16;4170636;28;20022;-81
2023/02/14 08:10:45;;;;;;;47.58;28.42;;;-0.10;99.90;;;-1.14;100.00;102665.84;4170449;28;20405;-81
2023/02/14 08:12:58;;;;;;;41.70;24.90;;;0.00;99.90;;;-1.18;100.00;102647.81;4187123;28;20025;-81
2023/02/14 08:16:03;;;;;;;38.80;24.60;;;0.00;99.90;;;-1.04;100.00;102657.84;4174028;28;20044;-81
2023/02/14 08:17:20;;;;;;;42.65;26.25;;;0.10;99.90;;;-1.03;100.00;102656.97;4182218;28;20041;-81
2023/02/14 08:19:21;;;;;;;46.75;27.73;;;0.10;99.90;;;-1.08;100.00;102641.53;4170687;28;20519;-81
2023/02/14 08:21:22;;;;;;;45.65;27.45;;;0.20;99.90;;;-0.93;100.00;102658.47;4170332;28;20022;-81
2023/02/14 08:23:23;;;;;;;45.05;26.20;;;0.20;99.90;;;-0.89;100.00;102668.69;4170280;28;20499;-81
2023/02/14 08:25:24;;;;;;;43.13;25.38;;;0.20;99.90;;;-0.84;100.00;102658.25;4170020;28;20048;-81
2023/02/14 08:27:25;;;;;;;38.70;25.20;;;0.30;99.90;;;-0.82;100.00;102652.13;4178861;28;20065;-81
2023/02/14 08:29:25;;;;;;;43.35;27.00;;;0.30;99.90;;;-0.77;100.00;102654.59;4153644;28;20093;-81
2023/02/14 08:31:30;;;;;;;41.05;26.77;;;0.40;99.90;;;-0.75;100.00;102640.75;4170656;28;20029;-81
2023/02/14 08:33:31;;;;;;;45.80;26.85;;;0.40;99.90;;;-0.71;100.00;102641.50;4186768;28;20483;-81
2023/02/14 08:35:32;;;;;;;48.60;27.70;;;0.50;99.90;;;-0.61;100.00;102646.44;4170763;28;20037;-81
2023/02/14 08:37:33;;;;;;;48.47;28.15;;;0.60;99.90;;;-0.59;100.00;102639.44;4176514;28;20029;-81
2023/02/14 08:39:34;;;;;;;49.20;28.58;;;0.60;99.90;;;-0.49;100.00;102640.06;4171333;28;20029;-81
2023/02/14 08:41:35;;;;;;;47.33;29.77;;;0.70;99.90;;;-0.35;100.00;102644.88;4170084;28;20025;-81